sensor_id;sensor_type;location;lat;lon;timestamp;P1;durP1;ratioP1;P2;durP2;ratioP2
68479;SDS011;55469;48.934;12.050;2023-04-27T00:00:57;1.80;;;1.70;;
68479;SDS011;55469;48.934;12.050;2023-04-27T00:03:23;2.45;;;1.88;;
68479;SDS011;55469;48.934;12.050;2023-04-27T00:05:48;1.75;;;1.60;;
68479;SDS011;55469;48.934;12.050;2023-04-27T00:08:14;2.10;;;1.58;;
68479;SDS011;55469;48.934;12.050;2023-04-27T00:10:40;1.70;;;1.50;;
68479;SDS011;55469;48.934;12.050;2023-04-27T00:13:06;2.83;;;1.80;;
68479;SDS011;55469;48.934;12.050;2023-04-27T00:15:31;3.10;;;1.80;;
68479;SDS011;55469;48.934;12.050;2023-04-27T00:17:57;1.83;;;1.55;;
68479;SDS011;55469;48.934;12.050;2023-04-27T00:20:23;2.83;;;1.90;;
68479;SDS011;55469;48.934;12.050;2023-04-27T00:22:49;3.20;;;1.92;;
68479;SDS011;55469;48.934;12.050;2023-04-27T00:25:15;1.70;;;1.60;;
68479;SDS011;55469;48.934;12.050;2023-04-27T00:27:40;2.42;;;1.73;;
68479;SDS011;55469;48.934;12.050;2023-04-27T00:30:06;2.65;;;1.60;;
68479;SDS011;55469;48.934;12.050;2023-04-27T00:32:33;1.70;;;1.60;;
68479;SDS011;55469;48.934;12.050;2023-04-27T00:34:58;1.85;;;1.60;;
68479;SDS011;55469;48.934;12.050;2023-04-27T00:37:24;1.80;;;1.60;;
68479;SDS011;55469;48.934;12.050;2023-04-27T00:39:50;2.00;;;1.80;;
68479;SDS011;55469;48.934;12.050;2023-04-27T00:42:16;1.70;;;1.60;;
68479;SDS011;55469;48.934;12.050;2023-04-27T00:44:44;1.63;;;1.50;;
68479;SDS011;55469;48.934;12.050;2023-04-27T00:47:10;1.67;;;1.58;;
68479;SDS011;55469;48.934;12.050;2023-04-27T00:49:36;2.40;;;1.65;;
68479;SDS011;55469;48.934;12.050;2023-04-27T00:52:03;1.67;;;1.50;;
68479;SDS011;55469;48.934;12.050;2023-04-27T00:54:29;1.55;;;1.45;;
68479;SDS011;55469;48.934;12.050;2023-04-27T00:56:56;2.35;;;1.67;;
68479;SDS011;55469;48.934;12.050;2023-04-27T00:59:22;2.25;;;1.60;;
68479;SDS011;55469;48.934;12.050;2023-04-27T01:01:48;1.95;;;1.60;;
68479;SDS011;55469;48.934;12.050;2023-04-27T01:04:14;1.65;;;1.55;;
68479;SDS011;55469;48.934;12.050;2023-04-27T01:06:41;1.80;;;1.70;;
68479;SDS011;55469;48.934;12.050;2023-04-27T01:09:07;2.45;;;1.60;;
68479;SDS011;55469;48.934;12.050;2023-04-27T01:11:33;2.00;;;1.80;;
68479;SDS011;55469;48.934;12.050;2023-04-27T01:14:02;1.70;;;1.50;;
68479;SDS011;55469;48.934;12.050;2023-04-27T01:16:30;1.77;;;1.42;;
68479;SDS011;55469;48.934;12.050;2023-04-27T01:18:56;3.00;;;1.60;;
68479;SDS011;55469;48.934;12.050;2023-04-27T01:21:23;1.77;;;1.63;;
68479;SDS011;55469;48.934;12.050;2023-04-27T01:23:50;1.63;;;1.50;;
68479;SDS011;55469;48.934;12.050;2023-04-27T01:26:16;2.05;;;1.70;;
68479;SDS011;55469;48.934;12.050;2023-04-27T01:28:42;1.60;;;1.50;;
68479;SDS011;55469;48.934;12.050;2023-04-27T01:31:08;1.98;;;1.60;;
68479;SDS011;55469;48.934;12.050;2023-04-27T01:33:39;2.10;;;1.80;;
68479;SDS011;55469;48.934;12.050;2023-04-27T01:36:06;2.25;;;1.60;;
68479;SDS011;55469;48.934;12.050;2023-04-27T01:38:33;1.65;;;1.55;;
68479;SDS011;55469;48.934;12.050;2023-04-27T01:41:00;2.53;;;1.80;;
68479;SDS011;55469;48.934;12.050;2023-04-27T01:43:28;1.92;;;1.60;;
68479;SDS011;55469;48.934;12.050;2023-04-27T01:46:07;1.98;;;1.70;;
68479;SDS011;55469;48.934;12.050;2023-04-27T01:48:35;1.77;;;1.67;;
68479;SDS011;55469;48.934;12.050;2023-04-27T01:51:02;1.85;;;1.65;;
68479;SDS011;55469;48.934;12.050;2023-04-27T01:53:28;1.80;;;1.50;;
68479;SDS011;55469;48.934;12.050;2023-04-27T01:55:54;1.70;;;1.60;;
68479;SDS011;55469;48.934;12.050;2023-04-27T01:58:20;1.83;;;1.50;;
68479;SDS011;55469;48.934;12.050;2023-04-27T02:00:45;1.73;;;1.60;;
68479;SDS011;55469;48.934;12.050;2023-04-27T02:03:11;1.80;;;1.70;;
68479;SDS011;55469;48.934;12.050;2023-04-27T02:05:37;2.25;;;1.67;;
68479;SDS011;55469;48.934;12.050;2023-04-27T02:08:03;1.70;;;1.60;;
68479;SDS011;55469;48.934;12.050;2023-04-27T02:10:29;2.08;;;1.60;;
68479;SDS011;55469;48.934;12.050;2023-04-27T02:12:54;1.83;;;1.42;;
68479;SDS011;55469;48.934;12.050;2023-04-27T02:15:21;2.00;;;1.70;;
68479;SDS011;55469;48.934;12.050;2023-04-27T02:17:47;2.00;;;1.80;;
68479;SDS011;55469;48.934;12.050;2023-04-27T02:20:13;2.97;;;1.75;;
68479;SDS011;55469;48.934;12.050;2023-04-27T02:22:43;2.08;;;1.80;;
68479;SDS011;55469;48.934;12.050;2023-04-27T02:25:09;1.58;;;1.48;;
68479;SDS011;55469;48.934;12.050;2023-04-27T02:27:39;1.50;;;1.40;;
68479;SDS011;55469;48.934;12.050;2023-04-27T02:30:06;1.55;;;1.45;;
68479;SDS011;55469;48.934;12.050;2023-04-27T02:32:35;1.90;;;1.70;;
68479;SDS011;55469;48.934;12.050;2023-04-27T02:35:02;2.67;;;1.73;;
68479;SDS011;55469;48.934;12.050;2023-04-27T02:37:28;1.77;;;1.50;;
68479;SDS011;55469;48.934;12.050;2023-04-27T02:39:54;1.65;;;1.55;;
68479;SDS011;55469;48.934;12.050;2023-04-27T02:42:20;1.75;;;1.65;;
68479;SDS011;55469;48.934;12.050;2023-04-27T02:44:46;2.08;;;1.88;;
68479;SDS011;55469;48.934;12.050;2023-04-27T02:47:11;2.20;;;1.70;;
68479;SDS011;55469;48.934;12.050;2023-04-27T02:49:38;1.80;;;1.70;;
68479;SDS011;55469;48.934;12.050;2023-04-27T02:52:04;1.60;;;1.50;;
68479;SDS011;55469;48.934;12.050;2023-04-27T02:54:30;1.60;;;1.50;;
68479;SDS011;55469;48.934;12.050;2023-04-27T02:56:56;2.60;;;1.70;;
68479;SDS011;55469;48.934;12.050;2023-04-27T02:59:22;2.42;;;1.70;;
68479;SDS011;55469;48.934;12.050;2023-04-27T03:01:48;1.70;;;1.60;;
68479;SDS011;55469;48.934;12.050;2023-04-27T03:04:13;2.03;;;1.52;;
68479;SDS011;55469;48.934;12.050;2023-04-27T03:06:40;2.33;;;1.83;;
68479;SDS011;55469;48.934;12.050;2023-04-27T03:09:06;1.70;;;1.60;;
68479;SDS011;55469;48.934;12.050;2023-04-27T03:11:34;1.63;;;1.52;;
68479;SDS011;55469;48.934;12.050;2023-04-27T03:14:00;1.70;;;1.60;;
68479;SDS011;55469;48.934;12.050;2023-04-27T03:16:26;2.22;;;1.60;;
68479;SDS011;55469;48.934;12.050;2023-04-27T03:18:52;1.80;;;1.70;;
68479;SDS011;55469;48.934;12.050;2023-04-27T03:21:18;1.83;;;1.73;;
68479;SDS011;55469;48.934;12.050;2023-04-27T03:23:44;1.77;;;1.67;;
68479;SDS011;55469;48.934;12.050;2023-04-27T03:26:10;1.98;;;1.45;;
68479;SDS011;55469;48.934;12.050;2023-04-27T03:28:38;2.53;;;1.70;;
68479;SDS011;55469;48.934;12.050;2023-04-27T03:31:04;1.60;;;1.50;;
68479;SDS011;55469;48.934;12.050;2023-04-27T03:33:31;1.88;;;1.67;;
68479;SDS011;55469;48.934;12.050;2023-04-27T03:35:57;1.67;;;1.58;;
68479;SDS011;55469;48.934;12.050;2023-04-27T03:38:24;2.97;;;1.50;;
68479;SDS011;55469;48.934;12.050;2023-04-27T03:40:50;1.50;;;1.40;;
68479;SDS011;55469;48.934;12.050;2023-04-27T03:43:17;1.70;;;1.40;;
68479;SDS011;55469;48.934;12.050;2023-04-27T03:45:44;1.70;;;1.60;;
68479;SDS011;55469;48.934;12.050;2023-04-27T03:48:10;1.77;;;1.60;;
68479;SDS011;55469;48.934;12.050;2023-04-27T03:50:36;2.83;;;1.70;;
68479;SDS011;55469;48.934;12.050;2023-04-27T03:53:01;3.08;;;1.65;;
68479;SDS011;55469;48.934;12.050;2023-04-27T03:55:27;1.70;;;1.60;;
68479;SDS011;55469;48.934;12.050;2023-04-27T03:57:53;2.17;;;1.50;;
68479;SDS011;55469;48.934;12.050;2023-04-27T04:00:19;1.85;;;1.73;;
68479;SDS011;55469;48.934;12.050;2023-04-27T04:02:45;2.00;;;1.73;;
68479;SDS011;55469;48.934;12.050;2023-04-27T04:05:10;1.98;;;1.77;;
68479;SDS011;55469;48.934;12.050;2023-04-27T04:07:38;1.60;;;1.50;;
68479;SDS011;55469;48.934;12.050;2023-04-27T04:10:07;1.50;;;1.40;;
68479;SDS011;55469;48.934;12.050;2023-04-27T04:12:34;1.92;;;1.50;;
68479;SDS011;55469;48.934;12.050;2023-04-27T04:15:01;1.63;;;1.52;;
68479;SDS011;55469;48.934;12.050;2023-04-27T04:17:30;1.92;;;1.50;;
68479;SDS011;55469;48.934;12.050;2023-04-27T04:19:57;2.03;;;1.83;;
68479;SDS011;55469;48.934;12.050;2023-04-27T04:22:31;1.80;;;1.60;;
68479;SDS011;55469;48.934;12.050;2023-04-27T04:24:57;3.05;;;1.70;;
68479;SDS011;55469;48.934;12.050;2023-04-27T04:27:22;2.00;;;1.50;;
68479;SDS011;55469;48.934;12.050;2023-04-27T04:29:48;1.90;;;1.70;;
68479;SDS011;55469;48.934;12.050;2023-04-27T04:32:14;2.40;;;1.83;;
68479;SDS011;55469;48.934;12.050;2023-04-27T04:34:42;2.10;;;1.90;;
68479;SDS011;55469;48.934;12.050;2023-04-27T04:37:13;1.92;;;1.65;;
68479;SDS011;55469;48.934;12.050;2023-04-27T04:39:39;3.22;;;2.20;;
68479;SDS011;55469;48.934;12.050;2023-04-27T04:42:04;2.03;;;1.70;;
68479;SDS011;55469;48.934;12.050;2023-04-27T04:44:30;2.17;;;1.83;;
68479;SDS011;55469;48.934;12.050;2023-04-27T04:46:57;2.72;;;1.80;;
68479;SDS011;55469;48.934;12.050;2023-04-27T04:49:22;1.67;;;1.58;;
68479;SDS011;55469;48.934;12.050;2023-04-27T04:51:48;2.45;;;1.90;;
68479;SDS011;55469;48.934;12.050;2023-04-27T04:54:14;1.70;;;1.60;;
68479;SDS011;55469;48.934;12.050;2023-04-27T04:56:40;2.08;;;1.80;;
68479;SDS011;55469;48.934;12.050;2023-04-27T04:59:05;1.98;;;1.77;;
68479;SDS011;55469;48.934;12.050;2023-04-27T05:01:31;2.22;;;1.60;;
68479;SDS011;55469;48.934;12.050;2023-04-27T05:03:57;2.80;;;1.75;;
68479;SDS011;55469;48.934;12.050;2023-04-27T05:06:23;1.65;;;1.55;;
68479;SDS011;55469;48.934;12.050;2023-04-27T05:08:50;3.17;;;1.70;;
68479;SDS011;55469;48.934;12.050;2023-04-27T05:11:15;2.45;;;1.80;;
68479;SDS011;55469;48.934;12.050;2023-04-27T05:13:42;2.28;;;1.70;;
68479;SDS011;55469;48.934;12.050;2023-04-27T05:16:07;2.65;;;1.90;;
68479;SDS011;55469;48.934;12.050;2023-04-27T05:18:33;1.70;;;1.60;;
68479;SDS011;55469;48.934;12.050;2023-04-27T05:21:00;1.65;;;1.55;;
68479;SDS011;55469;48.934;12.050;2023-04-27T05:23:26;1.70;;;1.60;;
68479;SDS011;55469;48.934;12.050;2023-04-27T05:25:52;1.98;;;1.55;;
68479;SDS011;55469;48.934;12.050;2023-04-27T05:28:17;1.55;;;1.45;;
68479;SDS011;55469;48.934;12.050;2023-04-27T05:30:43;2.05;;;1.60;;
68479;SDS011;55469;48.934;12.050;2023-04-27T05:33:09;2.63;;;1.55;;
68479;SDS011;55469;48.934;12.050;2023-04-27T05:35:35;1.88;;;1.65;;
68479;SDS011;55469;48.934;12.050;2023-04-27T05:38:01;1.83;;;1.70;;
68479;SDS011;55469;48.934;12.050;2023-04-27T05:40:27;2.05;;;1.75;;
68479;SDS011;55469;48.934;12.050;2023-04-27T05:42:53;1.98;;;1.70;;
68479;SDS011;55469;48.934;12.050;2023-04-27T05:45:18;3.05;;;1.65;;
68479;SDS011;55469;48.934;12.050;2023-04-27T05:47:46;2.00;;;1.70;;
68479;SDS011;55469;48.934;12.050;2023-04-27T05:50:11;1.98;;;1.50;;
68479;SDS011;55469;48.934;12.050;2023-04-27T05:52:37;1.92;;;1.75;;
68479;SDS011;55469;48.934;12.050;2023-04-27T05:55:03;1.90;;;1.80;;
68479;SDS011;55469;48.934;12.050;2023-04-27T05:57:30;2.03;;;1.80;;
68479;SDS011;55469;48.934;12.050;2023-04-27T05:59:55;1.70;;;1.60;;
68479;SDS011;55469;48.934;12.050;2023-04-27T06:02:21;1.60;;;1.50;;
68479;SDS011;55469;48.934;12.050;2023-04-27T06:04:47;5.72;;;4.55;;
68479;SDS011;55469;48.934;12.050;2023-04-27T06:07:13;5.03;;;3.20;;
68479;SDS011;55469;48.934;12.050;2023-04-27T06:09:40;3.78;;;3.47;;
68479;SDS011;55469;48.934;12.050;2023-04-27T06:12:06;3.55;;;3.20;;
68479;SDS011;55469;48.934;12.050;2023-04-27T06:14:33;4.60;;;3.28;;
68479;SDS011;55469;48.934;12.050;2023-04-27T06:17:00;5.15;;;3.78;;
68479;SDS011;55469;48.934;12.050;2023-04-27T06:19:27;4.90;;;3.30;;
68479;SDS011;55469;48.934;12.050;2023-04-27T06:21:53;5.28;;;3.30;;
68479;SDS011;55469;48.934;12.050;2023-04-27T06:24:20;3.65;;;3.15;;
68479;SDS011;55469;48.934;12.050;2023-04-27T06:26:48;5.15;;;3.40;;
68479;SDS011;55469;48.934;12.050;2023-04-27T06:29:14;5.30;;;3.22;;
68479;SDS011;55469;48.934;12.050;2023-04-27T06:31:40;3.42;;;2.88;;
68479;SDS011;55469;48.934;12.050;2023-04-27T06:34:05;3.42;;;3.00;;
68479;SDS011;55469;48.934;12.050;2023-04-27T06:36:31;4.05;;;3.05;;
68479;SDS011;55469;48.934;12.050;2023-04-27T06:38:57;3.90;;;3.10;;
68479;SDS011;55469;48.934;12.050;2023-04-27T06:41:24;4.75;;;2.80;;
68479;SDS011;55469;48.934;12.050;2023-04-27T06:43:51;4.82;;;2.83;;
68479;SDS011;55469;48.934;12.050;2023-04-27T06:46:18;4.88;;;3.05;;
68479;SDS011;55469;48.934;12.050;2023-04-27T06:48:44;3.92;;;2.88;;
68479;SDS011;55469;48.934;12.050;2023-04-27T06:51:10;3.50;;;2.75;;
68479;SDS011;55469;48.934;12.050;2023-04-27T06:53:37;2.75;;;2.33;;
68479;SDS011;55469;48.934;12.050;2023-04-27T06:56:04;3.38;;;2.95;;
68479;SDS011;55469;48.934;12.050;2023-04-27T06:58:31;3.53;;;2.88;;
68479;SDS011;55469;48.934;12.050;2023-04-27T07:00:57;3.40;;;3.10;;
68479;SDS011;55469;48.934;12.050;2023-04-27T07:03:22;3.50;;;2.58;;
68479;SDS011;55469;48.934;12.050;2023-04-27T07:05:48;3.75;;;2.67;;
68479;SDS011;55469;48.934;12.050;2023-04-27T07:08:15;2.65;;;2.45;;
68479;SDS011;55469;48.934;12.050;2023-04-27T07:10:41;3.35;;;2.78;;
68479;SDS011;55469;48.934;12.050;2023-04-27T07:13:06;3.38;;;2.63;;
68479;SDS011;55469;48.934;12.050;2023-04-27T07:15:32;4.07;;;2.60;;
68479;SDS011;55469;48.934;12.050;2023-04-27T07:17:58;2.55;;;2.35;;
68479;SDS011;55469;48.934;12.050;2023-04-27T07:20:24;3.45;;;2.63;;
68479;SDS011;55469;48.934;12.050;2023-04-27T07:22:50;2.53;;;2.33;;
68479;SDS011;55469;48.934;12.050;2023-04-27T07:25:16;2.60;;;2.25;;
68479;SDS011;55469;48.934;12.050;2023-04-27T07:27:42;3.08;;;2.60;;
68479;SDS011;55469;48.934;12.050;2023-04-27T07:30:09;3.40;;;2.70;;
68479;SDS011;55469;48.934;12.050;2023-04-27T07:32:38;2.80;;;2.45;;
68479;SDS011;55469;48.934;12.050;2023-04-27T07:35:08;2.45;;;2.25;;
68479;SDS011;55469;48.934;12.050;2023-04-27T07:37:34;2.63;;;2.42;;
68479;SDS011;55469;48.934;12.050;2023-04-27T07:40:02;2.65;;;2.33;;
68479;SDS011;55469;48.934;12.050;2023-04-27T07:42:40;2.30;;;2.10;;
68479;SDS011;55469;48.934;12.050;2023-04-27T07:45:09;2.45;;;2.25;;
68479;SDS011;55469;48.934;12.050;2023-04-27T07:47:35;2.47;;;2.28;;
68479;SDS011;55469;48.934;12.050;2023-04-27T07:50:03;2.92;;;2.30;;
68479;SDS011;55469;48.934;12.050;2023-04-27T07:52:31;3.05;;;2.75;;
68479;SDS011;55469;48.934;12.050;2023-04-27T07:54:57;3.30;;;2.22;;
68479;SDS011;55469;48.934;12.050;2023-04-27T07:57:23;3.90;;;2.65;;
68479;SDS011;55469;48.934;12.050;2023-04-27T07:59:48;3.33;;;2.20;;
68479;SDS011;55469;48.934;12.050;2023-04-27T08:02:14;2.30;;;2.15;;
68479;SDS011;55469;48.934;12.050;2023-04-27T08:04:40;3.17;;;2.33;;
68479;SDS011;55469;48.934;12.050;2023-04-27T08:07:05;2.42;;;2.15;;
68479;SDS011;55469;48.934;12.050;2023-04-27T08:09:31;3.40;;;2.30;;
68479;SDS011;55469;48.934;12.050;2023-04-27T08:11:57;2.70;;;2.30;;
68479;SDS011;55469;48.934;12.050;2023-04-27T08:14:23;2.80;;;2.10;;
68479;SDS011;55469;48.934;12.050;2023-04-27T08:16:48;3.17;;;1.85;;
68479;SDS011;55469;48.934;12.050;2023-04-27T08:19:16;2.33;;;2.13;;
68479;SDS011;55469;48.934;12.050;2023-04-27T08:21:42;2.30;;;2.10;;
68479;SDS011;55469;48.934;12.050;2023-04-27T08:24:08;2.47;;;2.28;;
68479;SDS011;55469;48.934;12.050;2023-04-27T08:26:34;2.30;;;2.10;;
68479;SDS011;55469;48.934;12.050;2023-04-27T08:29:00;2.58;;;2.10;;
68479;SDS011;55469;48.934;12.050;2023-04-27T08:31:27;2.60;;;2.28;;
68479;SDS011;55469;48.934;12.050;2023-04-27T08:33:53;2.25;;;2.00;;
68479;SDS011;55469;48.934;12.050;2023-04-27T08:36:22;2.10;;;1.90;;
68479;SDS011;55469;48.934;12.050;2023-04-27T08:38:48;2.22;;;2.03;;
68479;SDS011;55469;48.934;12.050;2023-04-27T08:41:18;2.20;;;2.00;;
68479;SDS011;55469;48.934;12.050;2023-04-27T08:43:45;3.65;;;2.20;;
68479;SDS011;55469;48.934;12.050;2023-04-27T08:48:45;2.20;;;2.00;;
68479;SDS011;55469;48.934;12.050;2023-04-27T08:51:14;2.40;;;2.20;;
68479;SDS011;55469;48.934;12.050;2023-04-27T08:53:47;2.20;;;2.00;;
68479;SDS011;55469;48.934;12.050;2023-04-27T08:56:19;2.05;;;1.92;;
68479;SDS011;55469;48.934;12.050;2023-04-27T08:58:47;2.90;;;1.92;;
68479;SDS011;55469;48.934;12.050;2023-04-27T09:01:13;2.08;;;1.88;;
68479;SDS011;55469;48.934;12.050;2023-04-27T09:03:40;2.40;;;2.03;;
68479;SDS011;55469;48.934;12.050;2023-04-27T09:06:06;2.40;;;1.90;;
68479;SDS011;55469;48.934;12.050;2023-04-27T09:08:42;2.05;;;1.83;;
68479;SDS011;55469;48.934;12.050;2023-04-27T09:11:13;2.17;;;2.00;;
68479;SDS011;55469;48.934;12.050;2023-04-27T09:13:40;2.53;;;2.05;;
68479;SDS011;55469;48.934;12.050;2023-04-27T09:16:09;2.47;;;2.17;;
68479;SDS011;55469;48.934;12.050;2023-04-27T09:18:41;2.17;;;2.00;;
68479;SDS011;55469;48.934;12.050;2023-04-27T09:21:07;2.00;;;1.90;;
68479;SDS011;55469;48.934;12.050;2023-04-27T09:23:37;2.15;;;1.90;;
68479;SDS011;55469;48.934;12.050;2023-04-27T09:26:06;1.88;;;1.77;;
68479;SDS011;55469;48.934;12.050;2023-04-27T09:28:32;2.15;;;1.95;;
68479;SDS011;55469;48.934;12.050;2023-04-27T09:31:03;1.92;;;1.83;;
68479;SDS011;55469;48.934;12.050;2023-04-27T09:33:32;2.38;;;2.10;;
68479;SDS011;55469;48.934;12.050;2023-04-27T09:36:03;2.10;;;1.90;;
68479;SDS011;55469;48.934;12.050;2023-04-27T09:38:30;2.08;;;1.88;;
68479;SDS011;55469;48.934;12.050;2023-04-27T09:40:57;1.98;;;1.77;;
68479;SDS011;55469;48.934;12.050;2023-04-27T09:43:24;1.98;;;1.88;;
68479;SDS011;55469;48.934;12.050;2023-04-27T09:45:51;2.58;;;2.00;;
68479;SDS011;55469;48.934;12.050;2023-04-27T09:48:22;2.22;;;1.98;;
68479;SDS011;55469;48.934;12.050;2023-04-27T09:50:50;2.33;;;1.80;;
68479;SDS011;55469;48.934;12.050;2023-04-27T09:53:17;3.20;;;1.80;;
68479;SDS011;55469;48.934;12.050;2023-04-27T10:10:14;1.92;;;1.70;;
68479;SDS011;55469;48.934;12.050;2023-04-27T10:12:42;2.70;;;1.83;;
68479;SDS011;55469;48.934;12.050;2023-04-27T10:15:17;3.45;;;2.20;;
68479;SDS011;55469;48.934;12.050;2023-04-27T10:17:47;2.15;;;1.80;;
68479;SDS011;55469;48.934;12.050;2023-04-27T10:20:15;2.13;;;1.60;;
68479;SDS011;55469;48.934;12.050;2023-04-27T10:22:45;1.80;;;1.70;;
68479;SDS011;55469;48.934;12.050;2023-04-27T10:27:51;1.63;;;1.52;;
68479;SDS011;55469;48.934;12.050;2023-04-27T10:30:33;2.67;;;1.95;;
68479;SDS011;55469;48.934;12.050;2023-04-27T10:33:09;1.63;;;1.52;;
68479;SDS011;55469;48.934;12.050;2023-04-27T10:35:36;2.38;;;1.90;;
68479;SDS011;55469;48.934;12.050;2023-04-27T10:38:05;2.22;;;1.80;;
68479;SDS011;55469;48.934;12.050;2023-04-27T10:40:45;1.80;;;1.70;;
68479;SDS011;55469;48.934;12.050;2023-04-27T10:43:27;1.83;;;1.73;;
68479;SDS011;55469;48.934;12.050;2023-04-27T10:46:05;1.92;;;1.70;;
68479;SDS011;55469;48.934;12.050;2023-04-27T10:48:33;1.92;;;1.60;;
68479;SDS011;55469;48.934;12.050;2023-04-27T10:50:59;2.35;;;1.60;;
68479;SDS011;55469;48.934;12.050;2023-04-27T10:53:27;1.75;;;1.60;;
68479;SDS011;55469;48.934;12.050;2023-04-27T10:55:59;2.25;;;1.73;;
68479;SDS011;55469;48.934;12.050;2023-04-27T10:58:25;1.80;;;1.70;;
68479;SDS011;55469;48.934;12.050;2023-04-27T11:00:51;1.80;;;1.70;;
68479;SDS011;55469;48.934;12.050;2023-04-27T11:03:18;1.65;;;1.50;;
68479;SDS011;55469;48.934;12.050;2023-04-27T11:05:48;2.05;;;1.75;;
68479;SDS011;55469;48.934;12.050;2023-04-27T11:08:23;1.67;;;1.58;;
68479;SDS011;55469;48.934;12.050;2023-04-27T11:10:50;1.90;;;1.70;;
68479;SDS011;55469;48.934;12.050;2023-04-27T11:13:17;1.98;;;1.77;;
68479;SDS011;55469;48.934;12.050;2023-04-27T11:18:20;1.70;;;1.60;;
68479;SDS011;55469;48.934;12.050;2023-04-27T11:20:48;1.58;;;1.48;;
68479;SDS011;55469;48.934;12.050;2023-04-27T11:23:23;1.67;;;1.58;;
68479;SDS011;55469;48.934;12.050;2023-04-27T11:26:07;1.58;;;1.48;;
68479;SDS011;55469;48.934;12.050;2023-04-27T11:28:41;1.50;;;1.40;;
68479;SDS011;55469;48.934;12.050;2023-04-27T11:31:09;1.90;;;1.80;;
68479;SDS011;55469;48.934;12.050;2023-04-27T11:33:35;1.48;;;1.38;;
68479;SDS011;55469;48.934;12.050;2023-04-27T11:36:03;1.75;;;1.40;;
68479;SDS011;55469;48.934;12.050;2023-04-27T11:38:41;1.70;;;1.60;;
68479;SDS011;55469;48.934;12.050;2023-04-27T11:41:07;1.60;;;1.50;;
68479;SDS011;55469;48.934;12.050;2023-04-27T11:43:33;1.70;;;1.60;;
68479;SDS011;55469;48.934;12.050;2023-04-27T11:46:02;2.10;;;1.83;;
68479;SDS011;55469;48.934;12.050;2023-04-27T11:48:28;1.48;;;1.38;;
68479;SDS011;55469;48.934;12.050;2023-04-27T11:50:56;1.77;;;1.67;;
68479;SDS011;55469;48.934;12.050;2023-04-27T11:53:29;3.10;;;1.50;;
68479;SDS011;55469;48.934;12.050;2023-04-27T11:56:00;2.08;;;1.58;;
68479;SDS011;55469;48.934;12.050;2023-04-27T11:58:31;2.05;;;1.50;;
68479;SDS011;55469;48.934;12.050;2023-04-27T12:01:01;1.98;;;1.30;;
68479;SDS011;55469;48.934;12.050;2023-04-27T12:03:31;1.60;;;1.50;;
68479;SDS011;55469;48.934;12.050;2023-04-27T12:05:56;1.65;;;1.55;;
68479;SDS011;55469;48.934;12.050;2023-04-27T12:08:23;2.05;;;1.30;;
68479;SDS011;55469;48.934;12.050;2023-04-27T12:10:49;1.75;;;1.38;;
68479;SDS011;55469;48.934;12.050;2023-04-27T12:13:15;2.28;;;1.25;;
68479;SDS011;55469;48.934;12.050;2023-04-27T12:15:41;1.85;;;1.33;;
68479;SDS011;55469;48.934;12.050;2023-04-27T12:18:07;2.08;;;1.48;;
68479;SDS011;55469;48.934;12.050;2023-04-27T12:20:34;1.67;;;1.58;;
68479;SDS011;55469;48.934;12.050;2023-04-27T12:23:00;1.63;;;1.50;;
68479;SDS011;55469;48.934;12.050;2023-04-27T12:25:26;1.50;;;1.40;;
68479;SDS011;55469;48.934;12.050;2023-04-27T12:27:52;3.65;;;1.50;;
68479;SDS011;55469;48.934;12.050;2023-04-27T12:30:18;2.40;;;1.52;;
68479;SDS011;55469;48.934;12.050;2023-04-27T12:32:45;1.60;;;1.20;;
68479;SDS011;55469;48.934;12.050;2023-04-27T12:35:11;2.08;;;1.58;;
68479;SDS011;55469;48.934;12.050;2023-04-27T12:37:37;1.52;;;1.42;;
68479;SDS011;55469;48.934;12.050;2023-04-27T12:40:03;2.03;;;1.63;;
68479;SDS011;55469;48.934;12.050;2023-04-27T12:42:33;2.17;;;1.40;;
68479;SDS011;55469;48.934;12.050;2023-04-27T12:44:59;2.53;;;1.50;;
68479;SDS011;55469;48.934;12.050;2023-04-27T12:47:25;1.60;;;1.30;;
68479;SDS011;55469;48.934;12.050;2023-04-27T12:49:51;1.98;;;1.50;;
68479;SDS011;55469;48.934;12.050;2023-04-27T12:52:17;1.50;;;1.40;;
68479;SDS011;55469;48.934;12.050;2023-04-27T12:54:43;1.30;;;1.20;;
68479;SDS011;55469;48.934;12.050;2023-04-27T12:57:10;1.83;;;1.17;;
68479;SDS011;55469;48.934;12.050;2023-04-27T12:59:36;1.60;;;1.50;;
68479;SDS011;55469;48.934;12.050;2023-04-27T13:02:02;1.98;;;1.40;;
68479;SDS011;55469;48.934;12.050;2023-04-27T13:04:30;2.00;;;1.45;;
68479;SDS011;55469;48.934;12.050;2023-04-27T13:06:56;1.48;;;1.38;;
68479;SDS011;55469;48.934;12.050;2023-04-27T13:09:28;1.23;;;1.10;;
68479;SDS011;55469;48.934;12.050;2023-04-27T13:11:53;1.52;;;1.10;;
68479;SDS011;55469;48.934;12.050;2023-04-27T13:14:19;1.48;;;1.17;;
68479;SDS011;55469;48.934;12.050;2023-04-27T13:16:46;1.25;;;1.17;;
68479;SDS011;55469;48.934;12.050;2023-04-27T13:19:12;1.58;;;1.40;;
68479;SDS011;55469;48.934;12.050;2023-04-27T13:21:37;2.22;;;1.42;;
68479;SDS011;55469;48.934;12.050;2023-04-27T13:24:03;1.67;;;1.35;;
68479;SDS011;55469;48.934;12.050;2023-04-27T13:26:30;1.55;;;1.35;;
68479;SDS011;55469;48.934;12.050;2023-04-27T13:28:56;1.40;;;1.30;;
68479;SDS011;55469;48.934;12.050;2023-04-27T13:31:22;1.50;;;1.20;;
68479;SDS011;55469;48.934;12.050;2023-04-27T13:33:48;1.88;;;1.23;;
68479;SDS011;55469;48.934;12.050;2023-04-27T13:36:14;1.45;;;1.35;;
68479;SDS011;55469;48.934;12.050;2023-04-27T13:38:40;3.90;;;1.30;;
68479;SDS011;55469;48.934;12.050;2023-04-27T13:41:06;1.52;;;1.35;;
68479;SDS011;55469;48.934;12.050;2023-04-27T13:43:32;7.28;;;1.90;;
68479;SDS011;55469;48.934;12.050;2023-04-27T13:45:58;4.43;;;1.70;;
68479;SDS011;55469;48.934;12.050;2023-04-27T13:48:25;7.03;;;2.20;;
68479;SDS011;55469;48.934;12.050;2023-04-27T13:50:52;5.32;;;2.50;;
68479;SDS011;55469;48.934;12.050;2023-04-27T13:53:20;2.65;;;1.88;;
68479;SDS011;55469;48.934;12.050;2023-04-27T13:55:49;3.83;;;1.80;;
68479;SDS011;55469;48.934;12.050;2023-04-27T13:58:19;3.50;;;1.73;;
68479;SDS011;55469;48.934;12.050;2023-04-27T14:00:45;5.15;;;1.92;;
68479;SDS011;55469;48.934;12.050;2023-04-27T14:03:12;3.25;;;1.70;;
68479;SDS011;55469;48.934;12.050;2023-04-27T14:05:40;3.03;;;1.98;;
68479;SDS011;55469;48.934;12.050;2023-04-27T14:08:07;1.73;;;1.30;;
68479;SDS011;55469;48.934;12.050;2023-04-27T14:10:34;4.15;;;1.50;;
68479;SDS011;55469;48.934;12.050;2023-04-27T14:13:01;2.55;;;1.42;;
68479;SDS011;55469;48.934;12.050;2023-04-27T14:15:27;1.92;;;1.40;;
68479;SDS011;55469;48.934;12.050;2023-04-27T14:17:53;1.85;;;1.52;;
68479;SDS011;55469;48.934;12.050;2023-04-27T14:20:19;1.95;;;1.55;;
68479;SDS011;55469;48.934;12.050;2023-04-27T14:22:45;1.77;;;1.27;;
68479;SDS011;55469;48.934;12.050;2023-04-27T14:25:11;2.10;;;1.30;;
68479;SDS011;55469;48.934;12.050;2023-04-27T14:27:37;3.97;;;1.40;;
68479;SDS011;55469;48.934;12.050;2023-04-27T14:30:03;3.20;;;1.70;;
68479;SDS011;55469;48.934;12.050;2023-04-27T14:32:30;1.90;;;1.27;;
68479;SDS011;55469;48.934;12.050;2023-04-27T14:34:56;2.60;;;1.30;;
68479;SDS011;55469;48.934;12.050;2023-04-27T14:37:22;1.85;;;1.30;;
68479;SDS011;55469;48.934;12.050;2023-04-27T14:39:47;1.50;;;1.40;;
68479;SDS011;55469;48.934;12.050;2023-04-27T14:42:13;2.10;;;1.30;;
68479;SDS011;55469;48.934;12.050;2023-04-27T14:44:39;3.42;;;1.30;;
68479;SDS011;55469;48.934;12.050;2023-04-27T14:47:04;1.58;;;1.27;;
68479;SDS011;55469;48.934;12.050;2023-04-27T14:49:30;1.92;;;1.17;;
68479;SDS011;55469;48.934;12.050;2023-04-27T14:51:56;1.52;;;1.30;;
68479;SDS011;55469;48.934;12.050;2023-04-27T14:54:23;2.00;;;1.20;;